x

Mid Superior 60nm North Northeast Hancock, Mi (45001) Wave Buoy

5:50am - Sun 25th Sep 2016 All times are CDT. -5 hours from GMT.

  • Sig Wave height 4.3ft
  • Swell Direction
  • Peak Period 6s
  • Average Period 5s
  • Wind
    20mph, 22mph gusts
  • Sea Temp 61°f
  • Air Temp 61°f
  • Sea Pressure 1017.9mb
  • Mid Superior 60nm North Northeast Hancock, Mi
  • Mid Superior 60nm North Northeast Hancock, Mi

More Historic Weather Station data

Upgrade to MSW Pro to gain access to the past 30 days of data for over 8000 Wavebouys and Weather Stations around the globe.

Join Pro

Comparision Forecast

View Surf forecast
   
Sun 09/25 5:50am 4.5ft 6s 5s 20 22 mph 1017.9mb 61f 61f
4:50am 4ft 6s 5s 18 22 mph 1018.5mb 61f 61f
3:50am 4ft 6s 5s 18 20 mph 1018.9mb 61f 61f
2:50am 4ft 5s 4s 18 22 mph 1019.6mb 61f 61f
1:50am 4ft 6s 5s 20 22 mph 1019.9mb 61f 61f
12:50am 4.5ft 5s 5s 18 22 mph 1020.1mb 61f 61f
Sat 09/24 11:50pm 4ft 5s 4s 20 22 mph 1020.7mb 61f 61f
10:50pm 3.5ft 5s 4s 20 25 mph 1021.4mb 61f 61f
9:50pm 3ft 5s 4s 20 22 mph 1022.4mb 62f 60f
8:50pm 2.5ft 4s 4s 18 22 mph 1022.9mb 62f 61f
7:50pm 2.5ft 4s 3s 18 20 mph 1022.4mb 62f 61f
6:50pm 2.5ft 4s 3s 18 20 mph 1022mb 62f 61f
5:50pm 2ft 4s 3s 16 20 mph 1022.1mb 62f 61f
4:50pm 2ft 4s 3s 13 18 mph 1023.2mb 62f 61f
3:50pm 2ft 4s 3s 16
mph
1023.4mb 62f 61f
2:50pm 1.6ft 4s 3s 13 18 mph 1023.9mb 62f 61f
1:50pm 1.6ft 3s 3s 13 18 mph 1024.6mb 62f 61f
12:50pm 1.3ft 3s 3s 13 18 mph 1025.1mb 62f 61f
11:50am 1.3ft 3s 3s 13 16 mph 1025.6mb 62f 60f
10:50am 1ft 3s 3s 13 16 mph 1025.7mb 62f 60f
9:50am 1ft 3s 3s 11 16 mph 1025.8mb 62f 60f
8:50am 1ft 3s 3s 11 13 mph 1026.1mb 61f 60f
7:50am 1ft 3s 3s 11 16 mph 1025.7mb 61f 60f
6:50am 1ft 3s 3s 9 11 mph 1026.4mb 61f 60f
5:50am 1ft 3s 3s 9 11 mph 1026.4mb 61f 59f
4:50am 1ft 3s 3s 9 11 mph 1026.1mb 61f 59f
3:50am 1ft 3s 3s 11 13 mph 1025.3mb 61f 59f
2:50am 0.7ft  -  3s 11
mph
1024.9mb 61f 59f
1:50am 0.7ft  -  3s 11
mph
1024.8mb 62f 59f
12:50am 1ft 4s 3s 9 11 mph 1025mb 62f 58f
Fri 09/23 11:50pm 1ft 3s 3s 9
mph
1025.3mb 62f 58f
10:50pm 1ft 4s 3s 4 7 mph 1025.6mb 62f 58f
9:50pm 1ft 3s 3s 2 4 mph 1025.7mb 62f 58f
8:50pm 1.3ft 4s 4s 4
mph
1025.8mb 62f 58f
7:50pm 1ft 4s 4s 2 4 mph 1025.6mb 62f 58f
6:50pm 1.3ft 4s 4s 2 4 mph 1025.6mb 62f 57f
5:50pm 1.3ft 4s 4s 4 7 mph 1025.6mb 62f 58f
4:50pm 1.6ft 4s 4s 4 7 mph 1025.5mb 62f 57f
3:50pm 1.6ft 5s 4s 7 9 mph 1025.8mb 62f 57f
2:50pm 2ft 5s 4s 9 11 mph 1025.7mb 62f 57f
12:50pm 2.5ft 5s 4s 16 18 mph 1026.3mb 62f 57f
11:50am 2.5ft 4s 4s 13 18 mph 1026.9mb 62f 57f
10:50am 2.5ft 4s 4s 13 16 mph 1027.1mb 62f 56f
7:50am 2ft 4s 3s 11 16 mph 1025.9mb 62f 56f
6:50am 2ft 4s 4s 13 16 mph 1025.4mb 62f 57f
5:50am 2ft 4s 3s 13
mph
1024.9mb 62f 58f
4:50am 2ft 4s 3s 13 16 mph 1024.4mb 62f 58f
3:50am 1.6ft 3s 3s 13 16 mph 1023.4mb 62f 59f
2:50am 1.6ft 4s 3s 13 16 mph 1023.1mb 62f 60f
1:50am 1.6ft 4s 3s 13 16 mph 1022.8mb 62f 60f
12:50am 1.6ft 4s 4s 11 13 mph 1022.4mb 62f 60f
Thu 09/22 11:50pm 1.6ft 4s 3s 7 9 mph 1022.3mb 62f 61f
10:50pm 1ft 4s 3s 7 9 mph 1022.2mb 62f 61f
9:50pm 1ft 4s 3s 2 4 mph 1022mb 62f 61f
8:50pm 1ft 3s 3s 2
mph
1022mb 62f 60f
7:50pm 1ft 4s 3s  -  2 mph 1021.7mb 62f 60f
6:50pm 1ft 3s 3s 2
mph
1021.2mb 62f 59f
5:50pm 1ft 3s 3s 4 7 mph 1020.8mb 62f 60f
4:50pm 1ft 3s 3s 4 7 mph 1020.7mb 62f 59f
3:50pm 1.3ft 4s 3s 7 9 mph 1020.6mb 62f 59f
2:50pm 1.3ft 3s 3s 11 13 mph 1020.4mb 62f 60f
1:50pm 1ft 3s 3s 9 11 mph 1020mb 62f 60f
12:50pm 1.3ft 3s 3s 9 11 mph 1020mb 62f 60f
11:50am 1ft 3s 3s 9 11 mph 1020.3mb 62f 60f
10:50am 1ft 3s 3s 7
mph
1020.3mb 62f 61f
9:50am 1ft 4s 3s 4 7 mph 1020.2mb 62f 60f
8:50am 1ft 4s  -  2 4 mph 1020.4mb 62f 61f
7:50am 1ft 4s 3s 7 9 mph 1019.5mb 62f 60f
6:50am 1.3ft 4s 3s 7 9 mph 1020.1mb 62f 60f
5:50am 1ft 3s 3s 7 9 mph 1020mb 62f 60f
4:50am 0.7ft  -  3s 7 9 mph 1020.1mb 62f 59f
3:50am 0.7ft  -  3s 9 11 mph 1020.4mb 62f 58f
2:50am 0.7ft  -  3s 7 9 mph 1021.5mb 62f 62f
1:50am 0.7ft  -  3s 7
mph
1020.8mb 62f 61f
12:50am 0.7ft  -  3s 11 13 mph 1020.1mb 62f 61f
Wed 09/21 11:50pm 0.3ft  -  3s 13 16 mph 1020.4mb 62f 60f
10:50pm 0.3ft  -  4s 9 11 mph 1021.4mb 62f 60f
9:50pm 0.3ft  -  4s 4
mph
1021.7mb 62f 60f
8:50pm 0.3ft  -  3s 2 4 mph 1022.3mb 62f 60f
7:50pm 0.7ft  -  3s 2 4 mph 1022.2mb 62f 60f
6:50pm 0.7ft  -  3s 4
mph
1022.3mb 63f 60f
5:50pm 0.7ft  -  3s  -  2 mph 1021.7mb 63f 62f
4:50pm 0.7ft  -  3s  -  2 mph 1021.7mb 63f 60f
3:50pm 1ft 3s 3s  -  2 mph 1021.4mb 63f 61f
2:50pm 1ft 3s 3s 4 7 mph 1022.1mb 62f 60f
1:50pm 1.3ft 3s 3s 4 7 mph 1022.5mb 62f 60f
12:50pm 1.3ft 4s 3s 7 9 mph 1022.8mb 62f 59f